Terminal Aerodrome Forecast
Issued by NWS Sterling, VA

Current Version | Previous Version | Graphics & Text | Print | Product List | Glossary On
Versions: 1 2 3 4 5 6 7 8 9 10 11 12 13 14 15 16 17 18
426
FTUS41 KLWX 142339
TAFMRB
TAF
KMRB 142339Z 1500/1524 VRB03KT P6SM BKN100
     FM150300 19005KT 6SM -SHRA OVC045 WS020/23035KT
     FM150500 20005KT 4SM -SHRA OVC025 WS020/23035KT
     FM150700 21005KT 2SM BR OVC020
     FM151200 22007KT P6SM BKN050
     FM152000 24012G22KT P6SM OVC100=

USA.gov is the U.S. government's official web portal to all federal, state and local government web resources and services.